METAR & TAF Report
Available data for CYAM from the past 6 hours
SAULT STE MARIE, ON
Metar
CYAM 200700Z 03006KT 15SM SCT023 BKN082 BKN210 OVC230 M12/M15 A3013 RMK SC4AC1CC1CI2 SLP219

07:00 UTC

Wind: 30° 6kt

Visibility: 15 SM

Sky: SCT 2300 ft

Temp: -12 deg C / 10.4 deg F

Dewpoint: -15 deg C / 5 deg F

Pressure: 30.13 inHg

TAF
TAF AMD CYAM 200513Z 2005/2014 03007KT P6SM FEW015 OVC030 TEMPO 2005/2014 5SM -SN BKN015 OVC030 RMK NXT FCST BY 200800Z
NOTAM

Click here for NOTAMs.